Time;durP1;ratioP1;P1;durP2;ratioP2;P2;SDS_P1;SDS_P2;PMS_P1;PMS_P2;Temp;Humidity;BMP_temperature;BMP_pressure;BME280_temperature;BME280_humidity;BME280_pressure;Samples;Min_cycle;Max_cycle;Signal;HPM_P1;HPM_P2
2022/07/04 00:01:12;;;;;;;1999.90;999.90;;;18.10;99.90;;;;;;5035534;28;20466;-68
2022/07/04 00:03:39;;;;;;;1999.90;999.90;;;18.10;99.90;;;;;;5035203;28;20466;-70
2022/07/04 00:06:05;;;;;;;1999.90;999.90;;;18.00;99.90;;;;;;5035565;28;21013;-70
2022/07/04 00:08:32;;;;;;;1999.90;999.90;;;18.00;99.90;;;;;;5033000;28;20536;-69
2022/07/04 00:10:59;;;;;;;1999.90;999.90;;;18.10;99.90;;;;;;5043517;28;20531;-70
2022/07/04 00:13:27;;;;;;;1999.90;999.90;;;18.10;99.90;;;;;;5051712;28;20442;-70
2022/07/04 00:15:53;;;;;;;1999.90;999.90;;;18.00;99.90;;;;;;5051435;28;21047;-70
2022/07/04 00:18:20;;;;;;;1999.90;999.90;;;18.00;99.90;;;;;;5035592;28;20467;-69
2022/07/04 00:20:47;;;;;;;1999.90;999.90;;;18.00;99.90;;;;;;5033572;28;20508;-70
2022/07/04 00:23:13;;;;;;;1999.90;999.90;;;18.00;99.90;;;;;;5037157;28;20532;-69
2022/07/04 00:25:40;;;;;;;1999.90;999.90;;;17.90;99.90;;;;;;5033659;28;20478;-70
2022/07/04 00:28:06;;;;;;;1999.90;999.90;;;18.00;99.90;;;;;;5033428;28;20462;-67
2022/07/04 00:30:35;;;;;;;1999.90;999.90;;;18.00;99.90;;;;;;5036986;28;20467;-70
2022/07/04 00:33:02;;;;;;;1999.90;999.90;;;17.90;99.90;;;;;;5033948;28;20523;-69
2022/07/04 00:35:28;;;;;;;1999.90;999.90;;;17.80;99.90;;;;;;5034373;28;20494;-69
2022/07/04 00:37:55;;;;;;;1999.90;999.90;;;17.80;99.90;;;;;;5035069;28;20463;-70
2022/07/04 00:40:22;;;;;;;1999.90;999.90;;;17.80;99.90;;;;;;5033740;28;20512;-68
2022/07/04 00:42:49;;;;;;;1999.90;999.90;;;17.80;99.90;;;;;;5036760;28;20504;-69
2022/07/04 00:45:15;;;;;;;1999.90;999.90;;;17.70;99.90;;;;;;5033063;28;21035;-70
2022/07/04 00:47:43;;;;;;;1999.90;999.90;;;17.70;99.90;;;;;;5034500;28;20470;-69
2022/07/04 00:50:10;;;;;;;1999.90;999.90;;;17.60;99.90;;;;;;5037800;28;20508;-69
2022/07/04 00:52:37;;;;;;;1999.90;999.90;;;17.50;99.90;;;;;;5037618;28;20458;-69
2022/07/04 00:55:05;;;;;;;1999.90;999.90;;;17.40;99.90;;;;;;5039649;28;20486;-69
2022/07/04 00:57:32;;;;;;;1999.90;999.90;;;17.50;99.90;;;;;;5040183;28;20527;-66
2022/07/04 00:59:58;;;;;;;1999.90;999.90;;;17.50;99.90;;;;;;5038828;28;20459;-68
2022/07/04 01:02:25;;;;;;;1999.90;999.90;;;17.60;99.90;;;;;;5038988;28;20474;-69
2022/07/04 01:04:53;;;;;;;1999.90;999.90;;;17.60;99.90;;;;;;5054809;28;20458;-69
2022/07/04 01:07:20;;;;;;;1999.90;999.90;;;17.60;99.90;;;;;;5054875;28;20458;-69
2022/07/04 01:09:48;;;;;;;1999.90;999.90;;;17.70;99.90;;;;;;5055054;28;20454;-70
2022/07/04 01:12:26;;;;;;;1999.90;999.90;;;17.60;99.90;;;;;;5055073;28;20502;-69
2022/07/04 01:14:52;;;;;;;1999.90;999.90;;;17.50;99.90;;;;;;5037961;28;20517;-68
2022/07/04 01:17:19;;;;;;;1999.90;999.90;;;17.40;99.90;;;;;;5037417;28;20560;-68
2022/07/04 01:19:46;;;;;;;1999.90;999.90;;;17.50;99.90;;;;;;5038189;28;20992;-69
2022/07/04 01:22:15;;;;;;;1999.90;999.90;;;17.40;99.90;;;;;;5071299;22;21048;-68
2022/07/04 01:24:41;;;;;;;1999.90;999.90;;;17.50;99.90;;;;;;5047769;28;20537;-69
2022/07/04 01:27:08;;;;;;;1999.90;999.90;;;17.60;99.90;;;;;;5050033;28;22139;-68
2022/07/04 01:29:35;;;;;;;1999.90;999.90;;;17.70;99.90;;;;;;5049649;28;20970;-66
2022/07/04 01:32:05;;;;;;;1999.90;999.90;;;17.50;99.90;;;;;;5061541;28;20488;-66
2022/07/04 01:34:31;;;;;;;1999.90;999.90;;;17.40;99.90;;;;;;5067613;28;20558;-66
2022/07/04 01:36:59;;;;;;;1999.90;999.90;;;17.30;99.90;;;;;;5070620;28;20507;-65
2022/07/04 01:39:27;;;;;;;1999.90;999.90;;;17.30;99.90;;;;;;5068166;28;20465;-66
2022/07/04 01:41:54;;;;;;;1999.90;999.90;;;17.20;99.90;;;;;;5068846;28;20477;-65
2022/07/04 01:44:21;;;;;;;1999.90;999.90;;;17.10;99.90;;;;;;5067619;28;20887;-66
2022/07/04 01:46:48;;;;;;;1999.90;999.90;;;17.20;99.90;;;;;;5065966;28;20453;-66
2022/07/04 01:49:14;;;;;;;1999.90;999.90;;;17.30;99.90;;;;;;5067245;28;20473;-66
2022/07/04 01:51:45;;;;;;;1999.90;999.90;;;17.10;99.90;;;;;;5066990;28;20558;-66
2022/07/04 01:54:12;;;;;;;1999.90;999.90;;;17.10;99.90;;;;;;5068153;28;20900;-67
2022/07/04 01:56:40;;;;;;;1999.90;999.90;;;17.10;99.90;;;;;;5067334;28;20468;-66
2022/07/04 01:59:07;;;;;;;1999.90;999.90;;;17.10;99.90;;;;;;5066024;28;20461;-68
2022/07/04 02:01:33;;;;;;;1999.90;999.90;;;17.00;99.90;;;;;;5069727;28;20549;-66
2022/07/04 02:04:03;;;;;;;1999.90;999.90;;;17.10;99.90;;;;;;5087616;28;20535;-66
2022/07/04 02:06:30;;;;;;;1999.90;999.90;;;17.20;99.90;;;;;;5094128;28;20514;-67
2022/07/04 02:14:28;;;;;;;1999.90;999.90;;;17.10;99.90;;;;;;5066447;28;20559;-65
2022/07/04 02:16:55;;;;;;;1999.90;999.90;;;17.10;99.90;;;;;;5065909;28;20513;-66
2022/07/04 02:19:22;;;;;;;1999.90;999.90;;;17.00;99.90;;;;;;5068694;28;20464;-67
2022/07/04 02:21:48;;;;;;;1999.90;999.90;;;17.00;99.90;;;;;;5065422;28;20497;-67
2022/07/04 02:24:15;;;;;;;1999.90;999.90;;;17.20;99.90;;;;;;5068401;28;20465;-66
2022/07/04 02:26:43;;;;;;;1999.90;999.90;;;17.20;99.90;;;;;;5066819;28;20511;-67
2022/07/04 02:29:10;;;;;;;1999.90;999.90;;;17.30;99.90;;;;;;5066453;28;20469;-66
2022/07/04 02:31:36;;;;;;;1999.90;999.90;;;17.00;99.90;;;;;;5068666;28;20526;-69
2022/07/04 02:34:03;;;;;;;1999.90;999.90;;;17.00;99.90;;;;;;5066029;28;20525;-66
2022/07/04 02:36:30;;;;;;;1999.90;999.90;;;16.80;99.90;;;;;;5066084;28;20493;-66
2022/07/04 02:38:56;;;;;;;1999.90;999.90;;;16.80;99.90;;;;;;5066575;28;20461;-69
2022/07/04 02:41:23;;;;;;;1999.90;999.90;;;16.80;99.90;;;;;;5065944;28;20523;-65
2022/07/04 02:43:51;;;;;;;1999.90;999.90;;;16.80;99.90;;;;;;5066401;28;20518;-67
2022/07/04 02:46:18;;;;;;;1999.90;999.90;;;16.80;99.90;;;;;;5067123;28;20457;-67
2022/07/04 02:48:45;;;;;;;1999.90;999.90;;;16.90;99.90;;;;;;5069002;28;20522;-68
2022/07/04 02:51:11;;;;;;;1999.90;999.90;;;16.90;99.90;;;;;;5067754;28;21074;-70
2022/07/04 02:53:38;;;;;;;1999.90;999.90;;;17.00;99.90;;;;;;5065796;28;21830;-68
2022/07/04 02:56:05;;;;;;;1999.90;999.90;;;17.00;99.90;;;;;;5065719;28;20484;-67
2022/07/04 02:58:32;;;;;;;1999.90;999.90;;;16.80;99.90;;;;;;5068232;28;20522;-66
2022/07/04 03:01:00;;;;;;;1999.90;999.90;;;16.90;99.90;;;;;;5065035;28;20530;-67
2022/07/04 03:03:27;;;;;;;1999.90;999.90;;;16.90;99.90;;;;;;5065488;28;20965;-68
2022/07/04 03:05:54;;;;;;;1999.90;999.90;;;16.90;99.90;;;;;;5065236;28;20521;-67
2022/07/04 03:08:20;;;;;;;1999.90;999.90;;;16.70;99.90;;;;;;5065037;28;20519;-67
2022/07/04 03:10:49;;;;;;;1999.90;999.90;;;16.60;99.90;;;;;;5067813;28;21108;-68
2022/07/04 03:13:16;;;;;;;1999.90;999.90;;;16.50;99.90;;;;;;5064290;28;20452;-67
2022/07/04 03:19:05;;;;;;;1999.90;999.90;;;16.50;99.90;;;;;;5071198;28;20440;-67
2022/07/04 03:21:32;;;;;;;1999.90;999.90;;;16.60;99.90;;;;;;5065793;28;20610;-68
2022/07/04 03:23:59;;;;;;;1999.90;999.90;;;16.70;99.90;;;;;;5067082;28;20493;-67
2022/07/04 03:26:26;;;;;;;1999.90;999.90;;;16.70;99.90;;;;;;5073056;28;20454;-67
2022/07/04 03:28:53;;;;;;;1999.90;999.90;;;16.70;99.90;;;;;;5092059;28;20441;-67
2022/07/04 03:31:19;;;;;;;1999.90;999.90;;;16.80;99.90;;;;;;5091918;28;20980;-67
2022/07/04 03:33:47;;;;;;;1999.90;999.90;;;16.70;99.90;;;;;;5092291;28;20502;-67
2022/07/04 03:36:15;;;;;;;1999.90;999.90;;;16.60;99.90;;;;;;5087474;28;20473;-68
2022/07/04 03:38:42;;;;;;;1999.90;999.90;;;16.60;99.90;;;;;;5091812;28;20509;-69
2022/07/04 03:41:09;;;;;;;1999.90;999.90;;;16.50;99.90;;;;;;5092142;28;20470;-67
2022/07/04 03:43:35;;;;;;;1999.90;999.90;;;16.40;99.90;;;;;;5092467;28;20444;-67
2022/07/04 03:46:02;;;;;;;1999.90;999.90;;;16.40;99.90;;;;;;5091196;28;20451;-69
2022/07/04 03:48:29;;;;;;;1999.90;999.90;;;16.50;99.90;;;;;;5091340;28;20502;-67
2022/07/04 03:50:55;;;;;;;1999.90;999.90;;;16.50;99.90;;;;;;5092073;28;20472;-67
2022/07/04 03:53:24;;;;;;;1999.90;999.90;;;16.50;99.90;;;;;;5092094;28;20470;-68
2022/07/04 03:55:50;;;;;;;1999.90;999.90;;;16.50;99.90;;;;;;5092144;28;20499;-68
2022/07/04 03:58:17;;;;;;;1999.90;999.90;;;16.50;99.90;;;;;;5084409;28;20469;-67
2022/07/04 04:00:43;;;;;;;1999.90;999.90;;;16.60;99.90;;;;;;5091551;28;20464;-67
2022/07/04 04:05:26;;;;;;;1999.90;999.90;;;16.70;99.90;;;;;;5092173;28;20437;-67
2022/07/04 04:05:56;;;;;;;1999.90;999.90;;;16.70;99.90;;;;;;5091744;28;20536;-67
2022/07/04 04:08:24;;;;;;;1999.90;999.90;;;16.70;99.90;;;;;;5073630;28;20552;-68
2022/07/04 04:10:51;;;;;;;1999.90;999.90;;;16.60;99.90;;;;;;5065325;28;20219;-69
2022/07/04 04:13:17;;;;;;;1999.90;999.90;;;16.60;99.90;;;;;;5067208;28;20909;-67
2022/07/04 04:15:44;;;;;;;1999.90;999.90;;;16.60;99.90;;;;;;5066693;28;20489;-68
2022/07/04 04:18:10;;;;;;;1999.90;999.90;;;16.60;99.90;;;;;;5064549;28;21670;-67
2022/07/04 04:20:37;;;;;;;1999.90;999.90;;;16.70;99.90;;;;;;5065521;28;20484;-67
2022/07/04 04:23:04;;;;;;;1999.90;999.90;;;16.70;99.90;;;;;;5064990;28;20525;-68
2022/07/04 04:25:31;;;;;;;1999.90;999.90;;;16.60;99.90;;;;;;5069169;28;20570;-67
2022/07/04 04:27:58;;;;;;;1999.90;999.90;;;16.60;99.90;;;;;;5072612;28;20492;-68
2022/07/04 04:30:25;;;;;;;1999.90;999.90;;;16.60;99.90;;;;;;5070788;28;20547;-68
2022/07/04 04:32:51;;;;;;;1999.90;999.90;;;16.70;99.90;;;;;;5070615;28;20489;-67
2022/07/04 04:35:19;;;;;;;1999.90;999.90;;;16.80;99.90;;;;;;5071903;28;20509;-68
2022/07/04 04:37:45;;;;;;;1999.90;999.90;;;17.20;99.90;;;;;;5070326;28;20457;-68
2022/07/04 04:40:13;;;;;;;1999.90;999.90;;;17.70;99.90;;;;;;5074268;28;20464;-67
2022/07/04 04:42:41;;;;;;;1999.90;999.90;;;18.30;99.90;;;;;;5069761;28;20477;-68
2022/07/04 04:45:08;;;;;;;1999.90;999.90;;;18.80;99.90;;;;;;5072742;28;20566;-67
2022/07/04 04:47:34;;;;;;;1999.90;999.90;;;18.90;99.90;;;;;;5071590;28;21062;-67
2022/07/04 04:50:01;;;;;;;1999.90;999.90;;;18.90;99.90;;;;;;5069849;28;20497;-66
2022/07/04 04:52:28;;;;;;;1999.90;999.90;;;18.90;99.90;;;;;;5071263;28;20480;-67
2022/07/04 04:54:54;;;;;;;1999.90;999.90;;;18.90;99.90;;;;;;5070641;28;20969;-69
2022/07/04 04:57:21;;;;;;;1999.90;999.90;;;18.70;99.90;;;;;;5069075;28;20464;-68
2022/07/04 04:59:49;;;;;;;1999.90;999.90;;;18.60;99.90;;;;;;5069788;28;20551;-70
2022/07/04 05:02:15;;;;;;;1999.90;999.90;;;18.60;99.90;;;;;;5068334;28;20901;-69
2022/07/04 05:04:42;;;;;;;1999.90;999.90;;;18.70;99.90;;;;;;5069325;28;20472;-67
2022/07/04 05:07:09;;;;;;;1999.90;999.90;;;18.80;99.90;;;;;;5069281;28;20536;-67
2022/07/04 05:09:35;;;;;;;1999.90;999.90;;;18.90;99.90;;;;;;5068352;28;20566;-66
2022/07/04 05:12:02;;;;;;;1999.90;999.90;;;19.00;99.90;;;;;;5068339;28;20880;-66
2022/07/04 05:14:29;;;;;;;1999.90;999.90;;;19.00;99.90;;;;;;5070043;28;21053;-64
2022/07/04 05:16:57;;;;;;;1999.90;999.90;;;19.20;99.90;;;;;;5067582;28;20484;-65
2022/07/04 05:19:24;;;;;;;1999.90;999.90;;;19.20;99.90;;;;;;5069908;28;20492;-65
2022/07/04 05:21:50;;;;;;;1999.90;999.90;;;18.90;99.90;;;;;;5071049;28;20926;-66
2022/07/04 05:24:17;;;;;;;1999.90;999.90;;;18.70;99.90;;;;;;5068546;28;20978;-65
2022/07/04 05:26:44;;;;;;;1999.90;999.90;;;18.70;99.90;;;;;;5069993;28;20514;-65
2022/07/04 05:29:10;;;;;;;1999.90;999.90;;;18.70;99.90;;;;;;5067082;28;20985;-66
2022/07/04 05:31:37;;;;;;;1999.90;999.90;;;18.70;99.90;;;;;;5068594;28;20480;-66
2022/07/04 05:34:06;;;;;;;1999.90;999.90;;;18.80;99.90;;;;;;5068828;28;20497;-67
2022/07/04 05:36:32;;;;;;;1999.90;999.90;;;19.00;99.90;;;;;;5067417;28;20488;-66
2022/07/04 05:38:59;;;;;;;1999.90;999.90;;;19.10;99.90;;;;;;5070465;28;20945;-65
2022/07/04 05:41:25;;;;;;;1999.90;999.90;;;18.90;99.90;;;;;;5068766;28;20481;-66
2022/07/04 05:43:52;;;;;;;1999.90;999.90;;;18.90;99.90;;;;;;5067903;28;20454;-66
2022/07/04 05:46:19;;;;;;;1999.90;999.90;;;18.90;99.90;;;;;;5070517;28;20486;-65
2022/07/04 05:48:45;;;;;;;1999.90;999.90;;;18.90;99.90;;;;;;5066951;28;20549;-65
2022/07/04 05:51:13;;;;;;;1999.90;999.90;;;19.10;99.90;;;;;;5067562;28;20492;-66
2022/07/04 05:53:40;;;;;;;1999.90;999.90;;;19.00;99.90;;;;;;5071226;28;20537;-64
2022/07/04 05:56:06;;;;;;;1999.90;999.90;;;18.90;99.90;;;;;;5066740;28;21000;-66
2022/07/04 05:58:33;;;;;;;1999.90;999.90;;;18.70;99.90;;;;;;5071835;28;20456;-66
2022/07/04 06:01:00;;;;;;;1999.90;999.90;;;18.90;99.90;;;;;;5068009;28;20477;-67
2022/07/04 06:03:26;;;;;;;1999.90;999.90;;;19.20;99.90;;;;;;5067610;28;22560;-66
2022/07/04 06:05:53;;;;;;;1999.90;999.90;;;19.20;99.90;;;;;;5068624;28;20550;-65
2022/07/04 06:08:21;;;;;;;1999.90;999.90;;;19.50;99.90;;;;;;5069429;28;21060;-65
2022/07/04 06:10:48;;;;;;;1999.90;999.90;;;19.60;99.90;;;;;;5067042;28;20512;-66
2022/07/04 06:13:15;;;;;;;1999.90;999.90;;;19.70;99.90;;;;;;5067778;28;20892;-66
2022/07/04 06:15:41;;;;;;;1999.90;999.90;;;19.40;99.90;;;;;;5068813;28;20506;-67
2022/07/04 06:18:08;;;;;;;1999.90;999.90;;;19.40;99.90;;;;;;5067167;28;20496;-66
2022/07/04 06:20:35;;;;;;;1999.90;999.90;;;19.30;99.90;;;;;;5085592;28;20468;-66
2022/07/04 06:23:02;;;;;;;1999.90;999.90;;;19.50;99.90;;;;;;5093813;28;20443;-66
2022/07/04 06:25:30;;;;;;;1999.90;999.90;;;19.80;99.90;;;;;;5093687;28;20542;-65
2022/07/04 06:27:56;;;;;;;1999.90;999.90;;;19.80;99.90;;;;;;5086419;28;20538;-66
2022/07/04 06:30:23;;;;;;;1999.90;999.90;;;19.70;99.90;;;;;;5088856;28;20464;-66
2022/07/04 06:32:51;;;;;;;1999.90;999.90;;;19.70;99.90;;;;;;5093336;28;20801;-65
2022/07/04 06:38:05;;;;;;;1999.90;999.90;;;20.00;99.90;;;;;;5093327;28;20404;-65
2022/07/04 06:40:33;;;;;;;1999.90;999.90;;;19.90;99.90;;;;;;5093155;28;21130;-66
2022/07/04 06:43:00;;;;;;;1999.90;999.90;;;19.90;99.90;;;;;;5093394;28;20498;-65
2022/07/04 06:45:27;;;;;;;1999.90;999.90;;;20.00;99.90;;;;;;5091862;28;20452;-66
2022/07/04 06:47:53;;;;;;;1999.90;999.90;;;20.10;99.90;;;;;;5092391;28;20483;-66
2022/07/04 06:50:20;;;;;;;1999.90;999.90;;;20.20;99.90;;;;;;5093188;28;20440;-65
2022/07/04 06:52:47;;;;;;;1999.90;999.90;;;20.30;99.90;;;;;;5089525;28;20484;-66
2022/07/04 06:55:14;;;;;;;1999.90;999.90;;;20.60;99.90;;;;;;5091144;28;20460;-66
2022/07/04 06:57:42;;;;;;;1999.90;999.90;;;20.50;99.90;;;;;;5092786;28;20533;-65
2022/07/04 07:00:10;;;;;;;1999.90;999.90;;;20.40;99.90;;;;;;5085642;28;20465;-65
2022/07/04 07:02:37;;;;;;;1999.90;999.90;;;20.00;99.90;;;;;;5092839;28;20878;-65
2022/07/04 07:05:05;;;;;;;1999.90;999.90;;;19.90;99.90;;;;;;5092783;28;20444;-66
2022/07/04 07:07:31;;;;;;;1999.90;999.90;;;20.00;99.90;;;;;;5092755;28;20490;-67
2022/07/04 07:09:58;;;;;;;1999.90;999.90;;;20.10;99.90;;;;;;5086187;28;20472;-66
2022/07/04 07:12:25;;;;;;;1999.90;999.90;;;20.10;99.90;;;;;;5085890;28;20866;-65
2022/07/04 07:14:54;;;;;;;1999.90;999.90;;;20.50;99.90;;;;;;5092741;28;20823;-69
2022/07/04 07:17:22;;;;;;;1999.90;999.90;;;21.00;99.90;;;;;;5092357;28;20571;-66
2022/07/04 07:19:48;;;;;;;1999.90;999.90;;;21.20;99.90;;;;;;5085946;28;20464;-66
2022/07/04 07:22:16;;;;;;;1999.90;999.90;;;20.80;99.90;;;;;;5082230;22;20561;-70
2022/07/04 07:24:43;;;;;;;1999.90;999.90;;;20.80;99.90;;;;;;5033330;28;20458;-71
2022/07/04 07:27:10;;;;;;;1999.90;999.90;;;21.10;99.90;;;;;;5032189;28;20452;-70
2022/07/04 07:29:37;;;;;;;1999.90;999.90;;;21.20;99.90;;;;;;5024182;28;20513;-70
2022/07/04 07:32:06;;;;;;;1999.90;999.90;;;21.10;99.90;;;;;;5033398;28;20475;-70
2022/07/04 07:34:33;;;;;;;1999.90;999.90;;;21.40;99.90;;;;;;5032534;28;20505;-70
2022/07/04 07:37:00;;;;;;;1999.90;999.90;;;21.40;99.90;;;;;;5026877;28;20863;-69
2022/07/04 07:39:26;;;;;;;1999.90;999.90;;;21.30;99.90;;;;;;5023044;28;20449;-70
2022/07/04 07:41:53;;;;;;;1999.90;999.90;;;21.40;99.90;;;;;;5032822;28;20467;-70
2022/07/04 07:44:19;;;;;;;1999.90;999.90;;;21.50;99.90;;;;;;5032712;28;20943;-70
2022/07/04 07:46:46;;;;;;;1999.90;999.90;;;21.60;99.90;;;;;;5029213;28;20590;-70
2022/07/04 07:49:14;;;;;;;1999.90;999.90;;;21.60;99.90;;;;;;5021221;28;20444;-70
2022/07/04 07:51:41;;;;;;;1999.90;999.90;;;21.60;99.90;;;;;;5032322;28;20526;-70
2022/07/04 07:54:07;;;;;;;1999.90;999.90;;;21.20;99.90;;;;;;5033366;28;20443;-70
2022/07/04 07:56:34;;;;;;;1999.90;999.90;;;20.90;99.90;;;;;;5030333;28;20475;-70
2022/07/04 07:59:00;;;;;;;1999.90;999.90;;;20.70;99.90;;;;;;5020166;28;20444;-70
2022/07/04 08:01:27;;;;;;;1999.90;999.90;;;20.90;99.90;;;;;;5031449;28;20452;-70
2022/07/04 08:06:39;;;;;;;1999.90;999.90;;;20.40;99.90;;;;;;5011638;28;20512;-70
2022/07/04 08:09:07;;;;;;;1999.90;999.90;;;20.40;99.90;;;;;;5020271;28;20440;-69
2022/07/04 08:11:34;;;;;;;1999.90;999.90;;;20.90;99.90;;;;;;5032548;28;20487;-69
2022/07/04 08:14:01;;;;;;;1999.90;999.90;;;21.70;99.90;;;;;;5032837;28;20443;-70
2022/07/04 08:16:27;;;;;;;1999.90;999.90;;;21.60;99.90;;;;;;5022048;28;20484;-70
2022/07/04 08:18:54;;;;;;;1999.90;999.90;;;21.50;99.90;;;;;;5024013;28;20447;-70
2022/07/04 08:21:20;;;;;;;1999.90;999.90;;;21.40;99.90;;;;;;5032258;28;20521;-70
2022/07/04 08:23:48;;;;;;;1999.90;999.90;;;21.50;99.90;;;;;;5032329;28;20443;-70
2022/07/04 08:26:15;;;;;;;1999.90;999.90;;;21.40;99.90;;;;;;5023157;28;20518;-70
2022/07/04 08:28:41;;;;;;;1999.90;999.90;;;21.60;99.90;;;;;;5023495;28;20959;-70
2022/07/04 08:31:08;;;;;;;1999.90;999.90;;;21.50;99.90;;;;;;5032514;28;20442;-70
2022/07/04 08:33:35;;;;;;;1999.90;999.90;;;21.40;99.90;;;;;;5032193;28;20497;-70
2022/07/04 08:36:01;;;;;;;1999.90;999.90;;;21.30;99.90;;;;;;5024506;28;20968;-70
2022/07/04 08:38:28;;;;;;;1999.90;999.90;;;21.10;99.90;;;;;;5023231;28;20444;-71
2022/07/04 08:40:58;;;;;;;1999.90;999.90;;;21.40;99.90;;;;;;5033233;28;20439;-70
2022/07/04 08:43:26;;;;;;;1999.90;999.90;;;22.10;99.90;;;;;;5032191;28;20471;-70
2022/07/04 08:45:55;;;;;;;1999.90;999.90;;;22.10;99.90;;;;;;5026219;28;20492;-70
2022/07/04 08:48:24;;;;;;;1999.90;999.90;;;22.30;99.90;;;;;;5018863;28;20898;-71
2022/07/04 08:50:55;;;;;;;1999.90;999.90;;;22.20;99.90;;;;;;5024778;28;20439;-70
2022/07/04 08:53:24;;;;;;;1999.90;999.90;;;22.30;99.90;;;;;;5033583;28;20478;-71
2022/07/04 08:58:39;;;;;;;1999.90;999.90;;;22.60;99.90;;;;;;5029413;28;20422;-71
2022/07/04 09:01:07;;;;;;;1999.90;999.90;;;22.40;99.90;;;;;;5013119;28;20467;-70
2022/07/04 09:03:35;;;;;;;1999.90;999.90;;;22.50;99.90;;;;;;5013412;28;20463;-69
2022/07/04 09:06:02;;;;;;;1999.90;999.90;;;22.40;99.90;;;;;;5012155;28;20460;-70
2022/07/04 09:08:29;;;;;;;1999.90;999.90;;;22.50;99.70;;;;;;5022329;28;20456;-71
2022/07/04 09:10:55;;;;;;;1999.90;999.90;;;22.50;99.30;;;;;;5025959;28;20443;-70
2022/07/04 09:13:22;;;;;;;1999.90;999.90;;;22.70;98.50;;;;;;5038074;28;20887;-71
2022/07/04 09:15:52;;;;;;;1999.90;999.90;;;22.70;98.90;;;;;;5030440;28;20460;-73
2022/07/04 09:18:25;;;;;;;1999.90;999.90;;;23.10;98.90;;;;;;5023508;28;20483;-70
2022/07/04 09:20:52;;;;;;;1999.90;999.90;;;23.20;98.60;;;;;;5034946;28;20454;-71
2022/07/04 09:23:21;;;;;;;1999.90;999.90;;;23.10;98.50;;;;;;5034679;28;20482;-71
2022/07/04 09:25:48;;;;;;;1999.90;999.90;;;22.90;98.30;;;;;;5030030;28;20948;-70
2022/07/04 09:28:28;;;;;;;1999.90;999.90;;;23.00;98.80;;;;;;5023194;28;20502;-71
2022/07/04 09:30:56;;;;;;;1999.90;999.90;;;23.20;98.70;;;;;;5034321;28;20902;-71
2022/07/04 09:33:23;;;;;;;1999.90;999.90;;;23.20;97.30;;;;;;5035615;28;20567;-70
2022/07/04 09:35:49;;;;;;;1999.90;999.90;;;23.10;96.80;;;;;;5029310;28;20478;-70
2022/07/04 09:38:23;;;;;;;1999.90;999.90;;;23.10;96.30;;;;;;5023125;28;20488;-71
2022/07/04 09:43:38;;;;;;;1999.90;999.90;;;23.60;95.30;;;;;;5034486;28;20407;-71
2022/07/04 09:46:06;;;;;;;1999.90;999.90;;;23.80;94.00;;;;;;5031602;28;20997;-71
2022/07/04 09:48:50;;;;;;;1999.90;999.90;;;23.80;94.90;;;;;;5026861;28;20457;-71
2022/07/04 09:51:37;;;;;;;1999.90;999.90;;;23.50;96.60;;;;;;5020463;28;20464;-70
2022/07/04 09:54:14;;;;;;;1999.90;999.90;;;23.10;97.50;;;;;;5009834;28;20460;-69
2022/07/04 09:56:41;;;;;;;1999.90;999.90;;;23.10;97.70;;;;;;5005654;28;20459;-70
2022/07/04 09:59:08;;;;;;;1999.90;999.90;;;23.00;97.40;;;;;;5008952;28;20464;-70
2022/07/04 10:01:36;;;;;;;1999.90;999.90;;;22.90;97.60;;;;;;5003197;28;21098;-70
2022/07/04 10:04:03;;;;;;;1999.90;999.90;;;23.30;96.00;;;;;;5007769;28;20464;-73
2022/07/04 10:06:32;;;;;;;1999.90;999.90;;;23.50;95.20;;;;;;5009530;28;20471;-70
2022/07/04 10:09:08;;;;;;;1999.90;999.90;;;23.80;94.30;;;;;;5010865;28;20960;-70
2022/07/04 10:11:36;;;;;;;1999.90;999.90;;;23.90;93.80;;;;;;5012752;28;20483;-70
2022/07/04 10:14:03;;;;;;;1999.90;999.90;;;23.40;93.80;;;;;;5007381;28;21143;-70
2022/07/04 10:16:31;;;;;;;1999.90;999.90;;;23.40;94.30;;;;;;5013831;28;20905;-73
2022/07/04 10:18:59;;;;;;;1999.90;999.90;;;23.80;94.60;;;;;;5013052;28;20952;-70
2022/07/04 10:21:26;;;;;;;1999.90;999.90;;;24.00;94.20;;;;;;5010672;28;20464;-70
2022/07/04 10:23:53;;;;;;;1999.90;999.90;;;24.30;94.20;;;;;;5008996;28;20472;-70
2022/07/04 10:26:20;;;;;;;1999.90;999.90;;;23.90;94.30;;;;;;5010794;28;20465;-70
2022/07/04 10:28:48;;;;;;;1999.90;999.90;;;23.70;94.40;;;;;;5010064;28;20519;-70
2022/07/04 10:31:16;;;;;;;1999.90;999.90;;;23.70;94.60;;;;;;5008962;28;20464;-70
2022/07/04 10:33:43;;;;;;;1999.90;999.90;;;24.10;93.50;;;;;;5008820;28;20882;-70
2022/07/04 10:36:16;;;;;;;1999.90;999.90;;;23.80;92.90;;;;;;5010739;28;20464;-71
2022/07/04 10:38:51;;;;;;;1999.90;999.90;;;24.00;92.70;;;;;;5012078;28;20537;-70
2022/07/04 10:41:20;;;;;;;1999.90;999.90;;;24.20;92.80;;;;;;5018441;28;20840;-70
2022/07/04 10:43:53;;;;;;;1999.90;999.90;;;24.60;92.30;;;;;;5010082;28;20559;-67
2022/07/04 10:46:34;;;;;;;1999.90;999.90;;;24.50;91.90;;;;;;5009445;28;20468;-70
2022/07/04 10:49:03;;;;;;;1999.90;999.90;;;24.70;91.90;;;;;;5011154;28;20514;-70
2022/07/04 10:51:37;;;;;;;1999.90;999.90;;;24.40;92.50;;;;;;5005258;28;20441;-70
2022/07/04 10:54:06;;;;;;;1999.90;999.90;;;24.10;92.40;;;;;;5013433;28;20442;-70
2022/07/04 10:56:37;;;;;;;1999.90;999.90;;;23.50;93.30;;;;;;5015378;28;20474;-71
2022/07/04 10:59:09;;;;;;;1999.90;999.90;;;23.10;92.40;;;;;;5015241;28;21237;-73
2022/07/04 11:01:36;;;;;;;1999.90;999.90;;;23.20;93.60;;;;;;5012497;28;20498;-71
2022/07/04 11:04:03;;;;;;;1999.90;999.90;;;23.90;91.80;;;;;;5008510;28;20911;-70
2022/07/04 11:06:55;;;;;;;1999.90;999.90;;;24.10;90.50;;;;;;5009252;28;20464;-70
2022/07/04 11:09:24;;;;;;;1999.90;999.90;;;24.60;90.60;;;;;;5007123;28;20840;-71
2022/07/04 11:11:52;;;;;;;1999.90;999.90;;;24.60;91.40;;;;;;5007949;28;20484;-70
2022/07/04 11:14:39;;;;;;;1999.90;999.90;;;24.50;91.50;;;;;;5009099;28;20464;-70
2022/07/04 11:17:07;;;;;;;1999.90;999.90;;;24.90;90.60;;;;;;5008960;28;20542;-70
2022/07/04 11:19:33;;;;;;;1999.90;999.90;;;25.20;90.20;;;;;;5008627;28;20468;-71
2022/07/04 11:22:01;;;;;;;1999.90;999.90;;;25.30;89.80;;;;;;5010260;28;20491;-70
2022/07/04 11:24:29;;;;;;;1999.90;999.90;;;25.10;89.10;;;;;;5009632;28;20487;-70
2022/07/04 11:26:56;;;;;;;1999.90;999.90;;;25.00;90.40;;;;;;5009093;28;20530;-71
2022/07/04 11:29:23;;;;;;;1999.90;999.90;;;25.00;90.50;;;;;;5008142;28;20456;-69
2022/07/04 11:31:52;;;;;;;1999.90;999.90;;;24.90;90.10;;;;;;5010757;28;20488;-70
2022/07/04 11:34:19;;;;;;;1999.90;999.90;;;24.90;90.60;;;;;;5009409;28;20480;-70
2022/07/04 11:36:48;;;;;;;1999.90;999.90;;;25.00;90.50;;;;;;5007302;28;20488;-71
2022/07/04 11:39:19;;;;;;;1999.90;999.90;;;25.10;89.50;;;;;;5009512;28;20518;-69
2022/07/04 11:47:22;;;;;;;1999.90;999.90;;;24.90;87.50;;;;;;5006996;28;20486;-71
2022/07/04 11:49:50;;;;;;;1999.90;999.90;;;24.90;88.20;;;;;;5003145;28;20460;-72
2022/07/04 11:52:19;;;;;;;1999.90;999.90;;;24.50;90.20;;;;;;5009879;28;20483;-71
2022/07/04 11:54:48;;;;;;;1999.90;999.90;;;24.60;91.10;;;;;;5006934;28;20514;-71
2022/07/04 11:57:18;;;;;;;1999.90;999.90;;;24.50;90.90;;;;;;5007773;28;20464;-69
2022/07/04 11:59:53;;;;;;;1999.90;999.90;;;24.70;91.10;;;;;;5016385;28;20454;-72
2022/07/04 12:02:21;;;;;;;1999.90;999.90;;;24.80;90.20;;;;;;5014859;28;20468;-71
2022/07/04 12:04:47;;;;;;;1999.90;999.90;;;24.90;88.00;;;;;;5012309;28;20936;-71
2022/07/04 12:07:16;;;;;;;1999.90;999.90;;;24.90;89.60;;;;;;5013323;28;20522;-71
2022/07/04 12:09:44;;;;;;;1999.90;999.90;;;24.80;89.30;;;;;;5023611;28;20862;-71
2022/07/04 12:12:13;;;;;;;1999.90;999.90;;;24.90;90.30;;;;;;5032194;28;20465;-71
2022/07/04 12:14:41;;;;;;;1999.90;999.90;;;25.10;87.70;;;;;;5025963;28;20506;-71
2022/07/04 12:17:13;;;;;;;1999.90;999.90;;;25.20;89.20;;;;;;5019979;28;20448;-71
2022/07/04 12:19:52;;;;;;;1999.90;999.90;;;25.10;89.90;;;;;;5012029;28;20456;-70
2022/07/04 12:22:26;;;;;;;1999.90;999.90;;;24.60;89.10;;;;;;5011916;28;20487;-70
2022/07/04 12:24:53;;;;;;;1999.90;999.90;;;24.60;87.50;;;;;;5010054;28;20459;-70
2022/07/04 12:27:21;;;;;;;1999.90;999.90;;;24.90;88.60;;;;;;5021156;28;20474;-71